createdAt,value
2018-02-22T00:00:06.956Z,22.57
2018-02-22T00:02:34.584Z,25.50
2018-02-22T00:05:02.220Z,24.50
2018-02-22T00:07:30.326Z,27.27
2018-02-22T00:09:58.034Z,25.97
2018-02-22T00:12:25.688Z,25.00
2018-02-22T00:14:53.327Z,24.30
2018-02-22T00:17:21.078Z,23.30
2018-02-22T00:19:48.671Z,26.20
2018-02-22T00:22:19.118Z,23.87
2018-02-22T00:24:46.789Z,25.83
2018-02-22T00:27:16.165Z,22.67
2018-02-22T00:29:44.346Z,23.10
2018-02-22T00:32:12.124Z,25.37
2018-02-22T00:34:39.778Z,20.90
2018-02-22T00:37:08.134Z,21.10
2018-02-22T00:39:36.654Z,20.67
2018-02-22T00:42:04.367Z,23.70
2018-02-22T00:44:32.125Z,23.80
2018-02-22T00:46:59.765Z,21.40
2018-02-22T00:49:28.119Z,22.43
2018-02-22T00:51:55.726Z,20.70
2018-02-22T00:54:23.777Z,22.20
2018-02-22T00:56:51.390Z,21.40
2018-02-22T00:59:19.170Z,21.33
2018-02-22T01:01:46.822Z,22.80
2018-02-22T01:04:14.427Z,22.03
2018-02-22T01:06:42.835Z,21.67
2018-02-22T01:09:11.736Z,22.97
2018-02-22T01:11:39.303Z,21.33
2018-02-22T01:14:07.022Z,22.97
2018-02-22T01:16:34.677Z,19.80
2018-02-22T01:19:02.232Z,23.20
2018-02-22T01:21:30.270Z,21.47
2018-02-22T01:23:57.981Z,22.20
2018-02-22T01:26:25.604Z,20.00
2018-02-22T01:28:53.198Z,25.23
2018-02-22T01:31:20.835Z,21.50
2018-02-22T01:33:48.529Z,22.27
2018-02-22T01:36:16.075Z,18.90
2018-02-22T01:38:43.722Z,23.13
2018-02-22T01:41:11.732Z,21.80
2018-02-22T01:43:39.354Z,20.60
2018-02-22T01:46:07.000Z,21.53
2018-02-22T01:48:34.583Z,21.23
2018-02-22T01:51:02.222Z,23.30
2018-02-22T01:53:30.461Z,21.20
2018-02-22T01:55:58.085Z,20.20
2018-02-22T01:58:25.717Z,22.23
2018-02-22T02:00:53.349Z,28.33
2018-02-22T02:03:20.989Z,22.83
2018-02-22T02:05:48.601Z,22.00
2018-02-22T02:08:16.199Z,18.77
2018-02-22T02:10:43.786Z,21.67
2018-02-22T02:13:11.881Z,22.27
2018-02-22T02:15:40.126Z,21.50
2018-02-22T02:18:07.827Z,24.63
2018-02-22T02:20:35.422Z,20.47
2018-02-22T02:23:02.994Z,21.37
2018-02-22T02:25:30.844Z,23.00
2018-02-22T02:28:04.283Z,24.07
2018-02-22T02:30:31.922Z,23.00
2018-02-22T02:32:59.543Z,23.97
2018-02-22T02:35:27.179Z,23.80
2018-02-22T02:37:54.793Z,22.73
2018-02-22T02:40:22.458Z,23.27
2018-02-22T02:42:50.052Z,22.87
2018-02-22T02:45:18.138Z,22.00
2018-02-22T02:47:45.789Z,22.83
2018-02-22T02:50:13.701Z,21.83
2018-02-22T02:52:41.327Z,22.20
2018-02-22T02:55:09.948Z,23.07
2018-02-22T02:57:37.545Z,24.33
2018-02-22T03:00:05.485Z,22.17
2018-02-22T03:02:33.159Z,22.77
2018-02-22T03:05:01.685Z,22.83
2018-02-22T03:07:30.460Z,22.40
2018-02-22T03:10:03.444Z,21.67
2018-02-22T03:12:32.732Z,22.60
2018-02-22T03:15:00.491Z,24.50
2018-02-22T03:17:28.637Z,22.07
2018-02-22T03:19:58.247Z,22.43
2018-02-22T03:22:26.304Z,22.83
2018-02-22T03:24:53.978Z,23.30
2018-02-22T03:27:21.621Z,22.00
2018-02-22T03:29:49.749Z,22.63
2018-02-22T03:32:32.761Z,25.17
2018-02-22T03:35:00.386Z,23.60
2018-02-22T03:37:29.212Z,25.20
2018-02-22T03:39:56.924Z,23.40
2018-02-22T03:42:24.679Z,23.33
2018-02-22T03:44:55.462Z,23.13
2018-02-22T03:47:23.166Z,20.87
2018-02-22T03:49:50.741Z,22.80
2018-02-22T03:52:18.377Z,22.40
2018-02-22T03:54:45.992Z,21.43
2018-02-22T03:57:14.062Z,23.17
2018-02-22T03:59:41.673Z,22.90
2018-02-22T04:02:09.540Z,22.70
2018-02-22T04:04:37.138Z,19.83
2018-02-22T04:07:04.824Z,20.20
2018-02-22T04:09:32.406Z,24.13
2018-02-22T04:14:31.876Z,18.60
2018-02-22T04:16:59.452Z,21.97
2018-02-22T04:19:28.146Z,21.00
2018-02-22T04:21:56.172Z,23.83
2018-02-22T04:24:25.243Z,22.90
2018-02-22T04:26:52.832Z,20.23
2018-02-22T04:29:20.724Z,20.80
2018-02-22T04:31:48.334Z,21.10
2018-02-22T04:34:15.913Z,22.60
2018-02-22T04:36:43.474Z,21.97
2018-02-22T04:39:12.046Z,20.20
2018-02-22T04:44:29.708Z,20.00
2018-02-22T04:46:57.321Z,22.30
2018-02-22T04:49:26.093Z,21.43
2018-02-22T04:51:53.684Z,23.00
2018-02-22T04:54:22.313Z,21.03
2018-02-22T04:56:49.904Z,21.13
2018-02-22T04:59:18.374Z,23.03
2018-02-22T05:01:45.947Z,20.80
2018-02-22T05:04:13.585Z,20.90
2018-02-22T05:06:41.280Z,21.73
2018-02-22T05:09:09.305Z,19.60
2018-02-22T05:11:37.305Z,22.20
2018-02-22T05:14:04.971Z,20.30
2018-02-22T05:16:32.554Z,20.70
2018-02-22T05:19:00.169Z,19.23
2018-02-22T05:21:27.773Z,22.10
2018-02-22T05:23:55.353Z,21.17
2018-02-22T05:26:24.307Z,20.83
2018-02-22T05:28:51.891Z,21.87
2018-02-22T05:31:19.788Z,23.43
2018-02-22T05:33:47.377Z,22.37
2018-02-22T05:36:14.980Z,22.10
2018-02-22T05:38:42.577Z,20.00
2018-02-22T05:41:11.616Z,20.10
2018-02-22T05:43:40.470Z,22.17
2018-02-22T05:46:08.261Z,26.30
2018-02-22T05:48:35.916Z,20.30
2018-02-22T05:51:03.588Z,20.27
2018-02-22T05:53:31.961Z,19.43
2018-02-22T05:55:59.629Z,19.30
2018-02-22T05:58:27.218Z,20.43
2018-02-22T06:00:54.808Z,18.43
2018-02-22T06:03:23.762Z,19.43
2018-02-22T06:05:51.342Z,20.30
2018-02-22T06:08:18.940Z,25.47
2018-02-22T06:10:46.829Z,20.67
2018-02-22T06:13:14.419Z,21.07
2018-02-22T06:15:42.016Z,19.70
2018-02-22T06:18:10.090Z,20.70
2018-02-22T06:20:37.694Z,20.97
2018-02-22T06:23:05.319Z,21.63
2018-02-22T06:25:33.669Z,18.90
2018-02-22T06:28:01.265Z,18.93
2018-02-22T06:30:29.038Z,19.70
2018-02-22T06:32:56.841Z,22.33
2018-02-22T06:35:24.512Z,21.87
2018-02-22T06:37:52.144Z,22.27
2018-02-22T06:40:19.863Z,21.70
2018-02-22T06:42:47.468Z,18.10
2018-02-22T06:45:15.972Z,20.07
2018-02-22T06:47:43.589Z,19.70
2018-02-22T06:50:11.202Z,18.70
2018-02-22T06:52:39.288Z,20.70
2018-02-22T06:55:07.649Z,22.27
2018-02-22T06:57:37.601Z,21.00
2018-02-22T07:00:05.756Z,21.20
2018-02-22T07:02:37.338Z,24.17
2018-02-22T07:05:05.735Z,21.87
2018-02-22T07:07:33.821Z,23.80
2018-02-22T07:10:02.882Z,18.40
2018-02-22T07:12:32.077Z,20.30
2018-02-22T07:14:59.720Z,20.40
2018-02-22T07:17:30.807Z,21.20
2018-02-22T07:19:58.469Z,21.60
2018-02-22T07:22:32.111Z,22.40
2018-02-22T07:24:59.986Z,22.00
2018-02-22T07:27:27.612Z,21.43
2018-02-22T07:29:57.984Z,20.90
2018-02-22T07:32:26.211Z,20.90
2018-02-22T07:34:56.362Z,20.00
2018-02-22T07:37:24.183Z,21.87
2018-02-22T07:39:51.823Z,21.53
2018-02-22T07:42:21.604Z,24.53
2018-02-22T07:44:49.578Z,23.27
2018-02-22T07:47:21.393Z,18.60
2018-02-22T07:49:49.036Z,20.10
2018-02-22T07:52:16.668Z,22.63
2018-02-22T07:54:44.311Z,21.30
2018-02-22T07:57:12.948Z,20.00
2018-02-22T07:59:42.643Z,20.50
2018-02-22T08:02:10.315Z,24.00
2018-02-22T08:04:37.971Z,24.00
2018-02-22T08:07:05.866Z,36.23
2018-02-22T08:09:34.559Z,24.13
2018-02-22T08:12:02.412Z,22.47
2018-02-22T08:14:30.009Z,31.10
2018-02-22T08:16:57.633Z,22.13
2018-02-22T08:19:25.922Z,21.23
2018-02-22T08:21:53.538Z,35.73
2018-02-22T08:24:22.057Z,21.07
2018-02-22T08:26:49.688Z,26.10
2018-02-22T08:29:17.863Z,29.03
2018-02-22T08:31:46.088Z,28.37
2018-02-22T08:34:13.691Z,24.50
2018-02-22T08:36:41.374Z,20.10
2018-02-22T08:39:09.116Z,20.40
2018-02-22T08:41:36.770Z,19.43
2018-02-22T08:44:04.453Z,18.80
2018-02-22T08:46:32.081Z,19.83
2018-02-22T08:48:59.715Z,18.10
2018-02-22T08:54:18.037Z,20.10
2018-02-22T08:56:45.928Z,21.90
2018-02-22T08:59:13.558Z,18.70
2018-02-22T09:01:41.284Z,21.40
2018-02-22T09:04:09.009Z,22.33
2018-02-22T09:06:36.703Z,20.17
2018-02-22T09:09:06.082Z,24.03
2018-02-22T09:11:33.956Z,24.00
2018-02-22T09:14:01.734Z,23.20
2018-02-22T09:16:29.309Z,20.77
2018-02-22T09:18:56.916Z,21.33
2018-02-22T09:21:25.358Z,20.23
2018-02-22T09:23:52.970Z,22.83
2018-02-22T09:26:20.638Z,20.10
2018-02-22T09:28:48.232Z,18.37
2018-02-22T09:31:15.835Z,23.27
2018-02-22T09:33:43.534Z,24.00
2018-02-22T09:36:11.306Z,20.13
2018-02-22T09:38:38.931Z,20.27
2018-02-22T09:41:06.649Z,20.43
2018-02-22T09:43:34.928Z,21.70
2018-02-22T09:46:02.579Z,19.50
2018-02-22T09:48:30.401Z,20.10
2018-02-22T09:50:58.004Z,18.30
2018-02-22T09:53:25.589Z,18.47
2018-02-22T09:55:55.108Z,21.50
2018-02-22T09:58:24.547Z,19.60
2018-02-22T10:00:52.189Z,19.03
2018-02-22T10:03:19.914Z,23.70
2018-02-22T10:05:47.496Z,19.07
2018-02-22T10:08:15.103Z,22.60
2018-02-22T10:10:42.719Z,19.67
2018-02-22T10:13:11.541Z,20.00
2018-02-22T10:15:39.758Z,19.50
2018-02-22T10:18:07.340Z,21.10
2018-02-22T10:20:35.768Z,20.20
2018-02-22T10:23:03.455Z,21.27
2018-02-22T10:25:31.821Z,20.87
2018-02-22T10:27:59.438Z,22.00
2018-02-22T10:30:27.241Z,21.20
2018-02-22T10:32:54.823Z,20.57
2018-02-22T10:35:23.063Z,18.57
2018-02-22T10:37:50.816Z,21.97
2018-02-22T10:40:18.652Z,22.57
2018-02-22T10:42:46.268Z,21.30
2018-02-22T10:45:14.460Z,26.60
2018-02-22T10:47:42.062Z,26.00
2018-02-22T10:50:09.685Z,29.40
2018-02-22T10:52:37.319Z,30.20
2018-02-22T10:55:04.933Z,21.50
2018-02-22T10:57:34.326Z,23.00
2018-02-22T11:00:01.974Z,19.93
2018-02-22T11:05:27.602Z,20.97
2018-02-22T11:07:55.179Z,21.63
2018-02-22T11:10:22.794Z,21.30
2018-02-22T11:12:51.454Z,20.93
2018-02-22T11:15:19.300Z,22.90
2018-02-22T11:17:48.235Z,22.13
2018-02-22T11:20:16.156Z,20.73
2018-02-22T11:22:46.450Z,23.10
2018-02-22T11:25:15.158Z,22.00
2018-02-22T11:27:44.729Z,23.20
2018-02-22T11:30:13.914Z,22.17
2018-02-22T11:32:41.657Z,20.43
2018-02-22T11:35:09.718Z,19.50
2018-02-22T11:37:39.199Z,17.63
2018-02-22T11:40:07.376Z,21.50
2018-02-22T11:42:35.465Z,17.60
2018-02-22T11:45:03.820Z,16.47
2018-02-22T11:47:31.471Z,19.50
2018-02-22T11:49:59.160Z,26.20
2018-02-22T11:52:26.752Z,28.70
2018-02-22T11:54:54.430Z,19.60
2018-02-22T11:57:22.959Z,21.47
2018-02-22T11:59:50.614Z,19.50
2018-02-22T12:02:18.177Z,20.00
2018-02-22T12:04:46.021Z,22.47
2018-02-22T12:07:13.657Z,21.47
2018-02-22T12:09:41.269Z,22.03
2018-02-22T12:12:08.866Z,21.50
2018-02-22T12:14:36.442Z,23.50
2018-02-22T12:17:04.032Z,20.90
2018-02-22T12:19:31.619Z,20.17
2018-02-22T12:21:59.233Z,22.20
2018-02-22T12:24:26.968Z,20.70
2018-02-22T12:26:54.550Z,27.00
2018-02-22T12:29:22.152Z,22.93
2018-02-22T12:31:49.789Z,24.37
2018-02-22T12:34:17.378Z,21.37
2018-02-22T12:36:44.959Z,23.90
2018-02-22T12:39:12.574Z,21.93
2018-02-22T12:41:40.192Z,22.10
2018-02-22T12:44:07.765Z,22.90
2018-02-22T12:46:35.391Z,22.60
2018-02-22T12:49:03.028Z,21.40
2018-02-22T12:51:30.640Z,21.37
2018-02-22T12:53:58.240Z,21.87
2018-02-22T12:56:25.805Z,21.37
2018-02-22T12:58:53.980Z,23.63
2018-02-22T13:01:22.166Z,22.90
2018-02-22T13:03:49.767Z,20.67
2018-02-22T13:06:17.501Z,22.30
2018-02-22T13:08:45.082Z,22.50
2018-02-22T13:11:13.653Z,23.07
2018-02-22T13:13:41.219Z,23.10
2018-02-22T13:16:09.062Z,27.43
2018-02-22T13:18:36.706Z,24.67
2018-02-22T13:21:04.552Z,24.50
2018-02-22T13:23:32.373Z,26.70
2018-02-22T13:26:00.002Z,27.70
2018-02-22T13:28:29.567Z,27.20
2018-02-22T13:30:57.223Z,26.03
2018-02-22T13:33:36.761Z,25.20
2018-02-22T13:36:04.576Z,24.23
2018-02-22T13:38:43.995Z,24.23
2018-02-22T13:41:12.251Z,25.00
2018-02-22T13:43:40.196Z,24.53
2018-02-22T13:46:07.888Z,24.47
2018-02-22T13:48:47.237Z,22.87
2018-02-22T13:51:14.858Z,26.60
2018-02-22T13:53:43.112Z,23.30
2018-02-22T13:56:23.706Z,21.50
2018-02-22T13:58:51.395Z,23.20
2018-02-22T14:01:30.672Z,25.10
2018-02-22T14:03:58.250Z,24.40
2018-02-22T14:06:26.389Z,27.10
2018-02-22T14:08:53.961Z,20.80
2018-02-22T14:11:21.547Z,20.90
2018-02-22T14:13:49.110Z,24.30
2018-02-22T14:16:16.685Z,25.23
2018-02-22T14:18:44.373Z,26.80
2018-02-22T14:21:12.924Z,22.60
2018-02-22T14:23:40.508Z,22.70
2018-02-22T14:26:08.156Z,22.90
2018-02-22T14:28:35.724Z,20.93
2018-02-22T14:31:03.339Z,23.50
2018-02-22T14:33:35.039Z,22.20
2018-02-22T14:36:02.764Z,23.13
2018-02-22T14:38:30.398Z,23.07
2018-02-22T14:40:57.980Z,21.13
2018-02-22T14:43:26.517Z,22.40
2018-02-22T14:45:54.132Z,22.63
2018-02-22T14:48:21.754Z,24.03
2018-02-22T14:50:49.619Z,22.20
2018-02-22T14:53:17.175Z,20.70
2018-02-22T14:55:45.614Z,24.17
2018-02-22T14:58:13.462Z,22.03
2018-02-22T15:00:47.939Z,22.87
2018-02-22T15:03:15.513Z,22.73
2018-02-22T15:05:52.860Z,23.07
2018-02-22T15:08:20.482Z,20.70
2018-02-22T15:10:48.235Z,22.07
2018-02-22T15:13:16.247Z,25.80
2018-02-22T15:15:44.771Z,23.27
2018-02-22T15:18:12.671Z,22.17
2018-02-22T15:20:40.296Z,22.20
2018-02-22T15:23:08.240Z,23.50
2018-02-22T15:25:36.731Z,23.60
2018-02-22T15:28:07.166Z,22.67
2018-02-22T15:30:37.859Z,28.90
2018-02-22T15:33:05.724Z,26.23
2018-02-22T15:35:33.846Z,24.90
2018-02-22T15:38:08.576Z,25.23
2018-02-22T15:40:42.355Z,33.90
2018-02-22T15:43:10.308Z,25.07
2018-02-22T15:45:38.412Z,26.03
2018-02-22T15:48:10.281Z,42.20
2018-02-22T15:50:38.018Z,29.50
2018-02-22T15:53:05.753Z,41.80
2018-02-22T15:55:35.391Z,38.17
2018-02-22T15:58:03.051Z,38.57
2018-02-22T16:00:34.447Z,27.63
2018-02-22T16:03:02.063Z,32.40
2018-02-22T16:05:30.696Z,33.60
2018-02-22T16:07:58.532Z,28.43
2018-02-22T16:10:26.195Z,24.47
2018-02-22T16:12:53.809Z,29.77
2018-02-22T16:15:21.780Z,27.53
2018-02-22T16:17:49.400Z,28.17
2018-02-22T16:20:17.019Z,24.80
2018-02-22T16:22:44.630Z,26.70
2018-02-22T16:25:13.007Z,26.40
2018-02-22T16:27:40.834Z,25.33
2018-02-22T16:30:08.449Z,27.40
2018-02-22T16:32:36.112Z,24.83
2018-02-22T16:37:36.774Z,27.33
2018-02-22T16:40:04.540Z,36.00
2018-02-22T16:42:32.165Z,26.87
2018-02-22T16:45:00.026Z,24.90
2018-02-22T16:47:29.892Z,26.40
2018-02-22T16:49:57.601Z,26.67
2018-02-22T16:52:26.961Z,30.63
2018-02-22T16:54:54.765Z,33.60
2018-02-22T16:57:30.195Z,31.33
2018-02-22T16:59:58.266Z,24.67
2018-02-22T17:02:26.127Z,28.17
2018-02-22T17:04:53.855Z,32.80
2018-02-22T17:07:21.513Z,34.27
2018-02-22T17:09:49.212Z,31.47
2018-02-22T17:12:17.053Z,27.17
2018-02-22T17:14:44.654Z,26.37
2018-02-22T17:17:13.873Z,28.10
2018-02-22T17:19:41.554Z,25.33
2018-02-22T17:22:10.072Z,28.27
2018-02-22T17:24:38.184Z,26.33
2018-02-22T17:27:12.121Z,27.63
2018-02-22T17:29:45.288Z,31.20
2018-02-22T17:32:18.322Z,36.53
2018-02-22T17:34:46.016Z,36.43
2018-02-22T17:37:18.924Z,29.87
2018-02-22T17:42:53.222Z,34.60
2018-02-22T17:45:21.744Z,31.90
2018-02-22T17:47:49.565Z,27.70
2018-02-22T17:50:17.399Z,25.20
2018-02-22T17:52:45.080Z,28.17
2018-02-22T17:55:13.932Z,33.23
2018-02-22T17:57:41.599Z,37.27
2018-02-22T18:00:09.346Z,26.03
2018-02-22T18:02:37.228Z,27.23
2018-02-22T18:05:04.963Z,31.20
2018-02-22T18:07:33.608Z,25.53
2018-02-22T18:10:03.069Z,29.87
2018-02-22T18:12:30.786Z,30.40
2018-02-22T18:14:58.443Z,29.87
2018-02-22T18:17:26.844Z,28.00
2018-02-22T18:19:54.576Z,28.13
2018-02-22T18:22:23.634Z,28.80
2018-02-22T18:24:51.276Z,24.90
2018-02-22T18:27:19.194Z,24.20
2018-02-22T18:29:48.765Z,29.23
2018-02-22T18:32:16.462Z,27.43
2018-02-22T18:34:44.072Z,29.67
2018-02-22T18:37:17.721Z,29.70
2018-02-22T18:39:45.591Z,26.90
2018-02-22T18:42:18.757Z,31.50
2018-02-22T18:44:51.984Z,26.23
2018-02-22T18:47:19.927Z,28.20
2018-02-22T18:49:47.639Z,31.37
2018-02-22T18:52:15.389Z,29.80
2018-02-22T18:54:43.023Z,28.63
2018-02-22T18:57:11.094Z,29.37
2018-02-22T18:59:38.867Z,29.27
2018-02-22T19:02:06.485Z,29.37
2018-02-22T19:04:35.453Z,30.17
2018-02-22T19:07:03.481Z,30.40
2018-02-22T19:09:31.105Z,27.60
2018-02-22T19:11:58.838Z,27.57
2018-02-22T19:14:26.459Z,29.33
2018-02-22T19:16:54.184Z,24.80
2018-02-22T19:19:22.017Z,26.00
2018-02-22T19:21:49.684Z,25.10
2018-02-22T19:24:17.357Z,25.87
2018-02-22T19:26:46.376Z,28.57
2018-02-22T19:29:14.177Z,26.47
2018-02-22T19:31:41.953Z,25.67
2018-02-22T19:34:09.614Z,27.47
2018-02-22T19:36:37.217Z,27.07
2018-02-22T19:39:04.938Z,30.07
2018-02-22T19:41:33.042Z,30.00
2018-02-22T19:44:01.019Z,27.63
2018-02-22T19:46:28.667Z,27.17
2018-02-22T19:49:15.279Z,29.27
2018-02-22T19:51:42.898Z,26.10
2018-02-22T19:54:10.502Z,28.63
2018-02-22T19:56:38.428Z,30.30
2018-02-22T19:59:06.034Z,29.43
2018-02-22T20:01:33.921Z,26.70
2018-02-22T20:04:01.830Z,30.50
2018-02-22T20:06:29.721Z,27.70
2018-02-22T20:08:57.570Z,28.80
2018-02-22T20:11:25.285Z,28.20
2018-02-22T20:13:53.011Z,28.97
2018-02-22T20:16:21.053Z,30.63
2018-02-22T20:18:48.753Z,30.37
2018-02-22T20:21:17.142Z,31.57
2018-02-22T20:23:45.000Z,27.40
2018-02-22T20:26:12.978Z,25.03
2018-02-22T20:28:40.644Z,29.30
2018-02-22T20:31:11.578Z,30.30
2018-02-22T20:33:39.224Z,30.20
2018-02-22T20:36:06.880Z,31.50
2018-02-22T20:38:35.533Z,28.10
2018-02-22T20:41:05.356Z,25.73
2018-02-22T20:43:33.603Z,29.80
2018-02-22T20:46:01.289Z,28.93
2018-02-22T20:48:29.005Z,30.70
2018-02-22T20:51:01.373Z,30.70
2018-02-22T20:53:33.185Z,28.73
2018-02-22T20:56:01.034Z,27.07
2018-02-22T20:58:28.924Z,27.47
2018-02-22T21:00:56.651Z,29.17
2018-02-22T21:03:25.352Z,31.67
2018-02-22T21:05:53.150Z,29.07
2018-02-22T21:08:21.100Z,28.93
2018-02-22T21:10:48.915Z,29.33
2018-02-22T21:13:17.760Z,30.77
2018-02-22T21:15:45.440Z,30.20
2018-02-22T21:18:13.267Z,29.17
2018-02-22T21:20:40.867Z,28.73
2018-02-22T21:23:08.502Z,29.10
2018-02-22T21:25:36.139Z,25.50
2018-02-22T21:28:03.750Z,30.23
2018-02-22T21:30:31.956Z,30.10
2018-02-22T21:32:59.617Z,26.93
2018-02-22T21:35:28.453Z,29.13
2018-02-22T21:37:56.099Z,25.50
2018-02-22T21:40:23.788Z,29.87
2018-02-22T21:42:51.487Z,29.30
2018-02-22T21:45:19.165Z,26.17
2018-02-22T21:47:46.828Z,28.50
2018-02-22T21:50:21.956Z,24.67
2018-02-22T21:52:49.641Z,23.50
2018-02-22T21:55:17.272Z,23.17
2018-02-22T21:57:45.952Z,24.67
2018-02-22T22:00:14.143Z,25.27
2018-02-22T22:02:41.819Z,23.77
2018-02-22T22:05:10.926Z,26.87
2018-02-22T22:07:38.847Z,27.27
2018-02-22T22:10:06.454Z,24.90
2018-02-22T22:12:34.218Z,24.00
2018-02-22T22:15:01.889Z,26.37
2018-02-22T22:17:30.439Z,26.33
2018-02-22T22:19:58.159Z,24.20
2018-02-22T22:22:25.791Z,23.40
2018-02-22T22:24:53.393Z,23.80
2018-02-22T22:27:21.019Z,23.37
2018-02-22T22:29:48.696Z,26.03
2018-02-22T22:32:16.684Z,23.80
2018-02-22T22:34:44.320Z,21.20
2018-02-22T22:37:13.000Z,25.27
2018-02-22T22:39:40.848Z,21.37
2018-02-22T22:42:08.814Z,21.77
2018-02-22T22:44:36.558Z,23.57
2018-02-22T22:47:04.274Z,24.70
2018-02-22T22:49:32.059Z,22.30
2018-02-22T22:51:59.854Z,24.03
2018-02-22T22:54:27.554Z,24.87
2018-02-22T22:56:55.260Z,24.87
2018-02-22T22:59:23.255Z,21.40
2018-02-22T23:01:57.736Z,25.10
2018-02-22T23:04:25.903Z,23.03
2018-02-22T23:06:54.390Z,24.33
2018-02-22T23:09:29.143Z,23.77
2018-02-22T23:11:56.906Z,22.37
2018-02-22T23:14:25.354Z,21.87
2018-02-22T23:16:53.094Z,21.87
2018-02-22T23:19:20.728Z,23.90
2018-02-22T23:21:48.353Z,27.33
2018-02-22T23:24:16.210Z,23.00
2018-02-22T23:26:44.168Z,21.33
2018-02-22T23:29:13.593Z,22.60
2018-02-22T23:31:41.594Z,22.40
2018-02-22T23:34:09.627Z,20.80
2018-02-22T23:36:37.247Z,21.63
2018-02-22T23:39:05.117Z,24.10
2018-02-22T23:41:39.118Z,24.87
2018-02-22T23:44:06.836Z,22.37
2018-02-22T23:46:34.566Z,24.80
2018-02-22T23:49:02.212Z,23.80
2018-02-22T23:51:29.913Z,25.87
2018-02-22T23:53:59.454Z,23.23
2018-02-22T23:56:27.170Z,22.87
2018-02-22T23:58:55.685Z,23.80
